sensor_id;sensor_type;location;lat;lon;timestamp;temperature;humidity
8099;DHT22;4092;47.876;9.372;2022-07-23T00:01:24;18.90;99.90
8099;DHT22;4092;47.876;9.372;2022-07-23T00:03:53;18.90;99.90
8099;DHT22;4092;47.876;9.372;2022-07-23T00:06:21;18.90;99.90
8099;DHT22;4092;47.876;9.372;2022-07-23T00:08:48;18.90;99.90
8099;DHT22;4092;47.876;9.372;2022-07-23T00:11:15;18.90;99.90
8099;DHT22;4092;47.876;9.372;2022-07-23T00:13:42;18.90;99.90
8099;DHT22;4092;47.876;9.372;2022-07-23T00:16:09;18.80;99.90
8099;DHT22;4092;47.876;9.372;2022-07-23T00:18:38;18.80;99.90
8099;DHT22;4092;47.876;9.372;2022-07-23T00:21:05;18.80;99.90
8099;DHT22;4092;47.876;9.372;2022-07-23T00:23:32;18.70;99.90
8099;DHT22;4092;47.876;9.372;2022-07-23T00:25:59;18.70;99.90
8099;DHT22;4092;47.876;9.372;2022-07-23T00:28:26;18.70;99.90
8099;DHT22;4092;47.876;9.372;2022-07-23T00:30:53;18.80;99.90
8099;DHT22;4092;47.876;9.372;2022-07-23T00:33:20;18.80;99.90
8099;DHT22;4092;47.876;9.372;2022-07-23T00:35:49;18.70;99.90
8099;DHT22;4092;47.876;9.372;2022-07-23T00:38:16;18.70;99.90
8099;DHT22;4092;47.876;9.372;2022-07-23T00:40:43;18.70;99.90
8099;DHT22;4092;47.876;9.372;2022-07-23T00:43:10;18.70;99.90
8099;DHT22;4092;47.876;9.372;2022-07-23T00:45:37;18.70;99.90
8099;DHT22;4092;47.876;9.372;2022-07-23T00:48:04;18.70;99.90
8099;DHT22;4092;47.876;9.372;2022-07-23T00:50:32;18.70;99.90
8099;DHT22;4092;47.876;9.372;2022-07-23T00:53:00;18.60;99.90
8099;DHT22;4092;47.876;9.372;2022-07-23T00:55:27;18.60;99.90
8099;DHT22;4092;47.876;9.372;2022-07-23T00:57:55;18.60;99.90
8099;DHT22;4092;47.876;9.372;2022-07-23T01:00:22;18.70;99.90
8099;DHT22;4092;47.876;9.372;2022-07-23T01:02:49;18.70;99.90
8099;DHT22;4092;47.876;9.372;2022-07-23T01:05:16;18.70;99.90
8099;DHT22;4092;47.876;9.372;2022-07-23T01:07:48;18.60;99.90
8099;DHT22;4092;47.876;9.372;2022-07-23T01:10:16;18.60;99.90
8099;DHT22;4092;47.876;9.372;2022-07-23T01:12:59;18.50;99.90
8099;DHT22;4092;47.876;9.372;2022-07-23T01:15:26;18.50;99.90
8099;DHT22;4092;47.876;9.372;2022-07-23T01:17:53;18.50;99.90
8099;DHT22;4092;47.876;9.372;2022-07-23T01:20:21;18.50;99.90
8099;DHT22;4092;47.876;9.372;2022-07-23T01:22:49;18.50;99.90
8099;DHT22;4092;47.876;9.372;2022-07-23T01:25:17;18.40;99.90
8099;DHT22;4092;47.876;9.372;2022-07-23T01:27:45;18.40;99.90
8099;DHT22;4092;47.876;9.372;2022-07-23T01:30:12;18.30;99.90
8099;DHT22;4092;47.876;9.372;2022-07-23T01:32:39;18.30;99.90
8099;DHT22;4092;47.876;9.372;2022-07-23T01:35:08;18.20;99.90
8099;DHT22;4092;47.876;9.372;2022-07-23T01:37:35;18.30;99.90
8099;DHT22;4092;47.876;9.372;2022-07-23T01:40:05;18.40;99.90
8099;DHT22;4092;47.876;9.372;2022-07-23T01:42:33;18.40;99.90
8099;DHT22;4092;47.876;9.372;2022-07-23T01:45:04;18.40;99.90
8099;DHT22;4092;47.876;9.372;2022-07-23T01:47:31;18.40;99.90
8099;DHT22;4092;47.876;9.372;2022-07-23T01:49:58;18.30;99.90
8099;DHT22;4092;47.876;9.372;2022-07-23T01:52:25;18.20;99.90
8099;DHT22;4092;47.876;9.372;2022-07-23T01:54:52;18.10;99.90
8099;DHT22;4092;47.876;9.372;2022-07-23T01:57:21;18.10;99.90
8099;DHT22;4092;47.876;9.372;2022-07-23T01:59:48;18.10;99.90
8099;DHT22;4092;47.876;9.372;2022-07-23T02:02:15;18.00;99.90
8099;DHT22;4092;47.876;9.372;2022-07-23T02:04:42;17.90;99.90
8099;DHT22;4092;47.876;9.372;2022-07-23T02:07:09;17.80;99.90
8099;DHT22;4092;47.876;9.372;2022-07-23T02:09:36;17.90;99.90
8099;DHT22;4092;47.876;9.372;2022-07-23T02:12:03;17.80;99.90
8099;DHT22;4092;47.876;9.372;2022-07-23T02:14:32;17.70;99.90
8099;DHT22;4092;47.876;9.372;2022-07-23T02:16:59;17.60;99.90
8099;DHT22;4092;47.876;9.372;2022-07-23T02:19:26;17.50;99.90
8099;DHT22;4092;47.876;9.372;2022-07-23T02:21:53;17.40;99.90
8099;DHT22;4092;47.876;9.372;2022-07-23T02:24:21;17.30;99.90
8099;DHT22;4092;47.876;9.372;2022-07-23T02:26:48;17.30;99.90
8099;DHT22;4092;47.876;9.372;2022-07-23T02:29:15;17.30;99.90
8099;DHT22;4092;47.876;9.372;2022-07-23T02:31:44;17.40;99.90
8099;DHT22;4092;47.876;9.372;2022-07-23T02:34:12;17.50;99.90
8099;DHT22;4092;47.876;9.372;2022-07-23T02:36:39;17.50;99.90
8099;DHT22;4092;47.876;9.372;2022-07-23T02:39:06;17.50;99.90
8099;DHT22;4092;47.876;9.372;2022-07-23T02:41:33;17.50;99.90
8099;DHT22;4092;47.876;9.372;2022-07-23T02:44:00;17.50;99.90
8099;DHT22;4092;47.876;9.372;2022-07-23T02:46:27;17.50;99.90
8099;DHT22;4092;47.876;9.372;2022-07-23T02:48:56;17.50;99.90
8099;DHT22;4092;47.876;9.372;2022-07-23T02:51:23;17.50;99.90
8099;DHT22;4092;47.876;9.372;2022-07-23T02:53:50;17.50;99.90
8099;DHT22;4092;47.876;9.372;2022-07-23T02:56:17;17.50;99.90
8099;DHT22;4092;47.876;9.372;2022-07-23T02:58:44;17.60;99.90
8099;DHT22;4092;47.876;9.372;2022-07-23T03:01:11;17.60;99.90
8099;DHT22;4092;47.876;9.372;2022-07-23T03:03:38;17.70;99.90
8099;DHT22;4092;47.876;9.372;2022-07-23T03:06:07;17.70;99.90
8099;DHT22;4092;47.876;9.372;2022-07-23T03:08:34;17.70;99.90
8099;DHT22;4092;47.876;9.372;2022-07-23T03:11:01;17.70;99.90
8099;DHT22;4092;47.876;9.372;2022-07-23T03:13:28;17.70;99.90
8099;DHT22;4092;47.876;9.372;2022-07-23T03:15:55;17.70;99.90
8099;DHT22;4092;47.876;9.372;2022-07-23T03:18:22;17.70;99.90
8099;DHT22;4092;47.876;9.372;2022-07-23T03:20:49;17.70;99.90
8099;DHT22;4092;47.876;9.372;2022-07-23T03:23:18;17.60;99.90
8099;DHT22;4092;47.876;9.372;2022-07-23T03:25:45;17.60;99.90
8099;DHT22;4092;47.876;9.372;2022-07-23T03:28:13;17.60;99.90
8099;DHT22;4092;47.876;9.372;2022-07-23T03:30:41;17.70;99.90
8099;DHT22;4092;47.876;9.372;2022-07-23T03:33:08;17.80;99.90
8099;DHT22;4092;47.876;9.372;2022-07-23T03:35:35;17.80;99.90
8099;DHT22;4092;47.876;9.372;2022-07-23T03:38:02;17.80;99.90
8099;DHT22;4092;47.876;9.372;2022-07-23T03:40:31;17.80;99.90
8099;DHT22;4092;47.876;9.372;2022-07-23T03:42:58;17.70;99.90
8099;DHT22;4092;47.876;9.372;2022-07-23T03:45:25;17.70;99.90
8099;DHT22;4092;47.876;9.372;2022-07-23T03:47:52;17.60;99.90
8099;DHT22;4092;47.876;9.372;2022-07-23T03:50:19;17.60;99.90
8099;DHT22;4092;47.876;9.372;2022-07-23T03:52:46;17.60;99.90
8099;DHT22;4092;47.876;9.372;2022-07-23T03:55:14;17.60;99.90
8099;DHT22;4092;47.876;9.372;2022-07-23T03:57:42;17.60;99.90
8099;DHT22;4092;47.876;9.372;2022-07-23T04:00:11;17.60;99.90
8099;DHT22;4092;47.876;9.372;2022-07-23T04:02:38;17.60;99.90
8099;DHT22;4092;47.876;9.372;2022-07-23T04:05:07;17.60;99.90
8099;DHT22;4092;47.876;9.372;2022-07-23T04:07:34;17.70;99.90
8099;DHT22;4092;47.876;9.372;2022-07-23T04:10:01;17.70;99.90
8099;DHT22;4092;47.876;9.372;2022-07-23T04:12:28;17.70;99.90
8099;DHT22;4092;47.876;9.372;2022-07-23T04:14:56;17.70;99.90
8099;DHT22;4092;47.876;9.372;2022-07-23T04:17:23;17.80;99.90
8099;DHT22;4092;47.876;9.372;2022-07-23T04:19:51;17.80;99.90
8099;DHT22;4092;47.876;9.372;2022-07-23T04:22:18;17.80;99.90
8099;DHT22;4092;47.876;9.372;2022-07-23T04:24:45;17.70;99.90
8099;DHT22;4092;47.876;9.372;2022-07-23T04:27:12;17.70;99.90
8099;DHT22;4092;47.876;9.372;2022-07-23T04:29:39;17.70;99.90
8099;DHT22;4092;47.876;9.372;2022-07-23T04:32:07;17.80;99.90
8099;DHT22;4092;47.876;9.372;2022-07-23T04:34:34;17.70;99.90
8099;DHT22;4092;47.876;9.372;2022-07-23T04:37:05;17.70;99.90
8099;DHT22;4092;47.876;9.372;2022-07-23T04:39:33;17.50;99.90
8099;DHT22;4092;47.876;9.372;2022-07-23T04:42:00;17.60;99.90
8099;DHT22;4092;47.876;9.372;2022-07-23T04:44:27;17.60;99.90
8099;DHT22;4092;47.876;9.372;2022-07-23T04:46:54;17.70;99.90
8099;DHT22;4092;47.876;9.372;2022-07-23T04:49:23;17.60;99.90
8099;DHT22;4092;47.876;9.372;2022-07-23T04:51:50;17.60;99.90
8099;DHT22;4092;47.876;9.372;2022-07-23T04:54:17;17.50;99.90
8099;DHT22;4092;47.876;9.372;2022-07-23T04:56:44;17.60;99.90
8099;DHT22;4092;47.876;9.372;2022-07-23T04:59:11;17.60;99.90
8099;DHT22;4092;47.876;9.372;2022-07-23T05:01:38;17.50;99.90
8099;DHT22;4092;47.876;9.372;2022-07-23T05:04:07;17.50;99.90
8099;DHT22;4092;47.876;9.372;2022-07-23T05:06:35;17.50;99.90
8099;DHT22;4092;47.876;9.372;2022-07-23T05:09:02;17.50;99.90
8099;DHT22;4092;47.876;9.372;2022-07-23T05:11:30;17.50;99.90
8099;DHT22;4092;47.876;9.372;2022-07-23T05:13:57;17.50;99.90
8099;DHT22;4092;47.876;9.372;2022-07-23T05:16:24;17.40;99.90
8099;DHT22;4092;47.876;9.372;2022-07-23T05:18:51;17.40;99.90
8099;DHT22;4092;47.876;9.372;2022-07-23T05:21:19;17.40;99.90
8099;DHT22;4092;47.876;9.372;2022-07-23T05:23:48;17.50;99.90
8099;DHT22;4092;47.876;9.372;2022-07-23T05:26:15;17.60;99.90
8099;DHT22;4092;47.876;9.372;2022-07-23T05:28:42;17.60;99.90
8099;DHT22;4092;47.876;9.372;2022-07-23T05:31:09;17.80;99.90
8099;DHT22;4092;47.876;9.372;2022-07-23T05:33:36;17.80;99.90
8099;DHT22;4092;47.876;9.372;2022-07-23T05:36:04;17.80;99.90
8099;DHT22;4092;47.876;9.372;2022-07-23T05:38:32;17.80;99.90
8099;DHT22;4092;47.876;9.372;2022-07-23T05:41:01;17.70;99.90
8099;DHT22;4092;47.876;9.372;2022-07-23T05:43:28;17.70;99.90
8099;DHT22;4092;47.876;9.372;2022-07-23T05:45:55;17.70;99.90
8099;DHT22;4092;47.876;9.372;2022-07-23T05:48:23;17.70;99.90
8099;DHT22;4092;47.876;9.372;2022-07-23T05:50:50;17.80;99.90
8099;DHT22;4092;47.876;9.372;2022-07-23T05:53:17;17.80;99.90
8099;DHT22;4092;47.876;9.372;2022-07-23T05:55:44;17.80;99.90
8099;DHT22;4092;47.876;9.372;2022-07-23T05:58:12;17.90;99.90
8099;DHT22;4092;47.876;9.372;2022-07-23T06:00:40;17.90;99.90
8099;DHT22;4092;47.876;9.372;2022-07-23T06:03:07;17.80;99.90
8099;DHT22;4092;47.876;9.372;2022-07-23T06:05:34;17.90;99.90
8099;DHT22;4092;47.876;9.372;2022-07-23T06:08:01;18.00;99.90
8099;DHT22;4092;47.876;9.372;2022-07-23T06:10:28;18.00;99.90
8099;DHT22;4092;47.876;9.372;2022-07-23T06:12:55;17.90;99.90
8099;DHT22;4092;47.876;9.372;2022-07-23T06:15:24;17.90;99.90
8099;DHT22;4092;47.876;9.372;2022-07-23T06:17:51;17.90;99.90
8099;DHT22;4092;47.876;9.372;2022-07-23T06:20:18;17.90;99.90
8099;DHT22;4092;47.876;9.372;2022-07-23T06:22:45;17.90;99.90
8099;DHT22;4092;47.876;9.372;2022-07-23T06:25:12;18.00;99.90
8099;DHT22;4092;47.876;9.372;2022-07-23T06:27:39;18.10;99.90
8099;DHT22;4092;47.876;9.372;2022-07-23T06:30:08;18.20;99.90
8099;DHT22;4092;47.876;9.372;2022-07-23T06:32:37;18.40;99.90
8099;DHT22;4092;47.876;9.372;2022-07-23T06:35:05;18.50;99.90
8099;DHT22;4092;47.876;9.372;2022-07-23T06:37:32;18.60;99.90
8099;DHT22;4092;47.876;9.372;2022-07-23T06:39:59;18.60;99.90
8099;DHT22;4092;47.876;9.372;2022-07-23T06:42:26;18.60;99.90
8099;DHT22;4092;47.876;9.372;2022-07-23T06:44:53;18.60;99.90
8099;DHT22;4092;47.876;9.372;2022-07-23T06:47:20;18.60;99.90
8099;DHT22;4092;47.876;9.372;2022-07-23T06:49:51;18.80;99.90
8099;DHT22;4092;47.876;9.372;2022-07-23T06:52:18;18.90;99.90
8099;DHT22;4092;47.876;9.372;2022-07-23T06:54:45;19.00;99.90
8099;DHT22;4092;47.876;9.372;2022-07-23T06:57:12;18.90;99.90
8099;DHT22;4092;47.876;9.372;2022-07-23T06:59:39;18.90;99.90
8099;DHT22;4092;47.876;9.372;2022-07-23T07:02:07;18.80;99.90
8099;DHT22;4092;47.876;9.372;2022-07-23T07:04:34;18.80;99.90
8099;DHT22;4092;47.876;9.372;2022-07-23T07:07:02;18.80;99.90
8099;DHT22;4092;47.876;9.372;2022-07-23T07:09:30;18.70;99.90
8099;DHT22;4092;47.876;9.372;2022-07-23T07:11:57;18.80;99.90
8099;DHT22;4092;47.876;9.372;2022-07-23T07:14:24;18.80;99.90
8099;DHT22;4092;47.876;9.372;2022-07-23T07:16:51;18.80;99.90
8099;DHT22;4092;47.876;9.372;2022-07-23T07:19:18;18.90;99.90
8099;DHT22;4092;47.876;9.372;2022-07-23T07:21:45;18.90;99.90
8099;DHT22;4092;47.876;9.372;2022-07-23T07:24:13;19.00;99.90
8099;DHT22;4092;47.876;9.372;2022-07-23T07:26:42;19.10;99.90
8099;DHT22;4092;47.876;9.372;2022-07-23T07:29:09;19.00;99.90
8099;DHT22;4092;47.876;9.372;2022-07-23T07:31:36;19.00;99.90
8099;DHT22;4092;47.876;9.372;2022-07-23T07:34:03;19.10;99.90
8099;DHT22;4092;47.876;9.372;2022-07-23T07:36:31;19.20;99.90
8099;DHT22;4092;47.876;9.372;2022-07-23T07:38:58;19.30;99.90
8099;DHT22;4092;47.876;9.372;2022-07-23T07:41:30;19.30;99.90
8099;DHT22;4092;47.876;9.372;2022-07-23T07:43:57;19.30;99.90
8099;DHT22;4092;47.876;9.372;2022-07-23T07:46:24;19.30;99.90
8099;DHT22;4092;47.876;9.372;2022-07-23T07:48:53;19.20;99.90
8099;DHT22;4092;47.876;9.372;2022-07-23T07:51:20;19.20;99.90
8099;DHT22;4092;47.876;9.372;2022-07-23T07:53:47;19.20;99.90
8099;DHT22;4092;47.876;9.372;2022-07-23T07:56:14;19.10;99.90
8099;DHT22;4092;47.876;9.372;2022-07-23T07:58:42;19.20;99.90
8099;DHT22;4092;47.876;9.372;2022-07-23T08:01:09;19.20;99.90
8099;DHT22;4092;47.876;9.372;2022-07-23T08:03:36;19.30;99.90
8099;DHT22;4092;47.876;9.372;2022-07-23T08:06:04;19.20;99.90
8099;DHT22;4092;47.876;9.372;2022-07-23T08:08:31;19.10;99.90
8099;DHT22;4092;47.876;9.372;2022-07-23T08:10:58;19.00;99.90
8099;DHT22;4092;47.876;9.372;2022-07-23T08:13:25;18.80;99.90
8099;DHT22;4092;47.876;9.372;2022-07-23T08:15:53;18.70;99.90
8099;DHT22;4092;47.876;9.372;2022-07-23T08:18:20;18.70;99.90
8099;DHT22;4092;47.876;9.372;2022-07-23T08:20:47;18.70;99.90
8099;DHT22;4092;47.876;9.372;2022-07-23T08:23:14;18.70;99.90
8099;DHT22;4092;47.876;9.372;2022-07-23T08:25:45;18.60;99.90
8099;DHT22;4092;47.876;9.372;2022-07-23T08:28:13;18.70;99.90
8099;DHT22;4092;47.876;9.372;2022-07-23T08:30:43;18.70;99.90
8099;DHT22;4092;47.876;9.372;2022-07-23T08:33:13;18.80;99.90
8099;DHT22;4092;47.876;9.372;2022-07-23T08:35:42;18.70;99.90
8099;DHT22;4092;47.876;9.372;2022-07-23T08:38:11;18.80;99.90
8099;DHT22;4092;47.876;9.372;2022-07-23T08:40:40;18.80;99.90
8099;DHT22;4092;47.876;9.372;2022-07-23T08:43:08;18.80;99.90
8099;DHT22;4092;47.876;9.372;2022-07-23T08:45:38;18.90;99.90
8099;DHT22;4092;47.876;9.372;2022-07-23T08:48:08;18.90;99.90
8099;DHT22;4092;47.876;9.372;2022-07-23T08:50:37;18.90;99.90
8099;DHT22;4092;47.876;9.372;2022-07-23T08:53:06;19.00;99.90
8099;DHT22;4092;47.876;9.372;2022-07-23T08:55:34;19.10;99.90
8099;DHT22;4092;47.876;9.372;2022-07-23T08:58:02;19.20;99.90
8099;DHT22;4092;47.876;9.372;2022-07-23T09:00:29;19.40;99.90
8099;DHT22;4092;47.876;9.372;2022-07-23T09:02:56;19.40;99.90
8099;DHT22;4092;47.876;9.372;2022-07-23T09:05:23;19.40;99.90
8099;DHT22;4092;47.876;9.372;2022-07-23T09:08:12;19.50;99.90
8099;DHT22;4092;47.876;9.372;2022-07-23T09:10:48;19.50;99.90
8099;DHT22;4092;47.876;9.372;2022-07-23T09:13:26;19.50;99.90
8099;DHT22;4092;47.876;9.372;2022-07-23T09:15:56;19.40;99.90
8099;DHT22;4092;47.876;9.372;2022-07-23T09:21:20;19.50;99.90
8099;DHT22;4092;47.876;9.372;2022-07-23T09:23:56;19.40;99.90
8099;DHT22;4092;47.876;9.372;2022-07-23T09:26:29;19.40;99.90
8099;DHT22;4092;47.876;9.372;2022-07-23T09:29:02;19.40;99.90
8099;DHT22;4092;47.876;9.372;2022-07-23T09:31:35;19.50;99.90
8099;DHT22;4092;47.876;9.372;2022-07-23T09:34:14;19.50;99.90
8099;DHT22;4092;47.876;9.372;2022-07-23T09:36:41;19.80;99.90
8099;DHT22;4092;47.876;9.372;2022-07-23T09:39:11;20.00;99.90
8099;DHT22;4092;47.876;9.372;2022-07-23T09:41:40;20.30;99.90
8099;DHT22;4092;47.876;9.372;2022-07-23T09:44:12;20.50;99.90
8099;DHT22;4092;47.876;9.372;2022-07-23T09:46:42;20.50;99.90
8099;DHT22;4092;47.876;9.372;2022-07-23T09:49:15;20.40;99.90
8099;DHT22;4092;47.876;9.372;2022-07-23T09:51:47;20.20;99.90
8099;DHT22;4092;47.876;9.372;2022-07-23T09:54:25;20.00;99.90
8099;DHT22;4092;47.876;9.372;2022-07-23T09:56:53;19.90;99.90
8099;DHT22;4092;47.876;9.372;2022-07-23T09:59:24;19.80;99.90
8099;DHT22;4092;47.876;9.372;2022-07-23T10:01:52;19.70;99.90
8099;DHT22;4092;47.876;9.372;2022-07-23T10:04:21;19.60;99.90
8099;DHT22;4092;47.876;9.372;2022-07-23T10:06:52;19.60;99.90
8099;DHT22;4092;47.876;9.372;2022-07-23T10:09:25;19.60;99.90
8099;DHT22;4092;47.876;9.372;2022-07-23T10:11:54;19.60;99.90
8099;DHT22;4092;47.876;9.372;2022-07-23T10:14:25;19.60;99.90
8099;DHT22;4092;47.876;9.372;2022-07-23T10:16:55;19.60;99.90
8099;DHT22;4092;47.876;9.372;2022-07-23T10:19:23;19.50;99.90
8099;DHT22;4092;47.876;9.372;2022-07-23T10:21:53;19.60;99.90
8099;DHT22;4092;47.876;9.372;2022-07-23T10:27:32;19.70;99.90
8099;DHT22;4092;47.876;9.372;2022-07-23T10:30:05;19.70;99.90
8099;DHT22;4092;47.876;9.372;2022-07-23T10:32:40;19.70;99.90
8099;DHT22;4092;47.876;9.372;2022-07-23T10:35:15;19.90;99.90
8099;DHT22;4092;47.876;9.372;2022-07-23T10:37:49;19.90;99.90
8099;DHT22;4092;47.876;9.372;2022-07-23T10:40:19;20.00;99.90
8099;DHT22;4092;47.876;9.372;2022-07-23T10:42:49;20.30;99.90
8099;DHT22;4092;47.876;9.372;2022-07-23T10:45:25;20.50;99.90
8099;DHT22;4092;47.876;9.372;2022-07-23T10:47:53;20.80;99.90
8099;DHT22;4092;47.876;9.372;2022-07-23T10:50:23;21.20;99.90
8099;DHT22;4092;47.876;9.372;2022-07-23T10:53:13;21.40;99.90
8099;DHT22;4092;47.876;9.372;2022-07-23T10:55:46;21.30;99.90
8099;DHT22;4092;47.876;9.372;2022-07-23T10:58:21;21.30;99.90
8099;DHT22;4092;47.876;9.372;2022-07-23T11:00:50;21.20;99.90
8099;DHT22;4092;47.876;9.372;2022-07-23T11:03:38;21.30;99.90
8099;DHT22;4092;47.876;9.372;2022-07-23T11:06:05;21.40;99.90
8099;DHT22;4092;47.876;9.372;2022-07-23T11:08:33;21.50;99.90
8099;DHT22;4092;47.876;9.372;2022-07-23T11:11:11;21.40;99.90
8099;DHT22;4092;47.876;9.372;2022-07-23T11:13:56;21.40;99.90
8099;DHT22;4092;47.876;9.372;2022-07-23T11:16:25;21.30;99.90
8099;DHT22;4092;47.876;9.372;2022-07-23T11:18:58;21.10;99.90
8099;DHT22;4092;47.876;9.372;2022-07-23T11:24:23;21.00;99.90
8099;DHT22;4092;47.876;9.372;2022-07-23T11:27:02;21.00;99.90
8099;DHT22;4092;47.876;9.372;2022-07-23T11:29:43;21.00;99.90
8099;DHT22;4092;47.876;9.372;2022-07-23T11:32:26;21.00;99.90
8099;DHT22;4092;47.876;9.372;2022-07-23T11:34:56;21.10;99.90
8099;DHT22;4092;47.876;9.372;2022-07-23T11:37:37;21.10;99.90
8099;DHT22;4092;47.876;9.372;2022-07-23T11:40:08;21.10;99.90
8099;DHT22;4092;47.876;9.372;2022-07-23T11:42:38;21.20;99.90
8099;DHT22;4092;47.876;9.372;2022-07-23T11:45:07;21.30;99.90
8099;DHT22;4092;47.876;9.372;2022-07-23T11:47:35;21.30;99.90
8099;DHT22;4092;47.876;9.372;2022-07-23T11:50:05;21.30;99.90
8099;DHT22;4092;47.876;9.372;2022-07-23T11:52:32;21.20;99.90
8099;DHT22;4092;47.876;9.372;2022-07-23T11:55:02;21.30;99.90
8099;DHT22;4092;47.876;9.372;2022-07-23T11:57:31;21.50;99.90
8099;DHT22;4092;47.876;9.372;2022-07-23T12:00:06;21.60;99.90
8099;DHT22;4092;47.876;9.372;2022-07-23T12:02:35;21.50;99.90
8099;DHT22;4092;47.876;9.372;2022-07-23T12:05:02;21.60;99.90
8099;DHT22;4092;47.876;9.372;2022-07-23T12:07:31;21.50;99.90
8099;DHT22;4092;47.876;9.372;2022-07-23T12:10:01;21.60;99.90
8099;DHT22;4092;47.876;9.372;2022-07-23T12:12:35;21.60;99.90
8099;DHT22;4092;47.876;9.372;2022-07-23T12:15:05;21.70;99.90
8099;DHT22;4092;47.876;9.372;2022-07-23T12:17:34;21.90;99.90
8099;DHT22;4092;47.876;9.372;2022-07-23T12:20:03;22.00;99.90
8099;DHT22;4092;47.876;9.372;2022-07-23T12:22:35;22.00;99.90
8099;DHT22;4092;47.876;9.372;2022-07-23T12:25:05;22.00;99.90
8099;DHT22;4092;47.876;9.372;2022-07-23T12:27:32;22.10;99.90
8099;DHT22;4092;47.876;9.372;2022-07-23T12:32:56;22.20;99.90
8099;DHT22;4092;47.876;9.372;2022-07-23T12:35:30;22.60;99.90
8099;DHT22;4092;47.876;9.372;2022-07-23T12:38:04;22.60;99.90
8099;DHT22;4092;47.876;9.372;2022-07-23T12:40:33;22.90;99.90
8099;DHT22;4092;47.876;9.372;2022-07-23T12:43:04;22.70;99.90
8099;DHT22;4092;47.876;9.372;2022-07-23T12:45:48;22.80;99.90
8099;DHT22;4092;47.876;9.372;2022-07-23T12:48:19;23.30;99.90
8099;DHT22;4092;47.876;9.372;2022-07-23T12:50:51;23.70;99.90
8099;DHT22;4092;47.876;9.372;2022-07-23T12:53:21;24.20;99.90
8099;DHT22;4092;47.876;9.372;2022-07-23T12:55:50;24.40;99.90
8099;DHT22;4092;47.876;9.372;2022-07-23T12:58:19;24.40;99.90
8099;DHT22;4092;47.876;9.372;2022-07-23T13:00:57;24.40;99.90
8099;DHT22;4092;47.876;9.372;2022-07-23T13:03:29;24.40;99.90
8099;DHT22;4092;47.876;9.372;2022-07-23T13:05:57;24.50;99.90
8099;DHT22;4092;47.876;9.372;2022-07-23T13:08:26;25.10;99.90
8099;DHT22;4092;47.876;9.372;2022-07-23T13:10:54;25.30;99.90
8099;DHT22;4092;47.876;9.372;2022-07-23T13:13:22;25.40;99.90
8099;DHT22;4092;47.876;9.372;2022-07-23T13:15:49;25.60;99.90
8099;DHT22;4092;47.876;9.372;2022-07-23T13:18:17;25.70;99.90
8099;DHT22;4092;47.876;9.372;2022-07-23T13:20:47;26.20;99.90
8099;DHT22;4092;47.876;9.372;2022-07-23T13:23:15;26.30;99.90
8099;DHT22;4092;47.876;9.372;2022-07-23T13:25:42;26.70;99.90
8099;DHT22;4092;47.876;9.372;2022-07-23T13:28:09;26.80;99.90
8099;DHT22;4092;47.876;9.372;2022-07-23T13:30:37;27.10;99.90
8099;DHT22;4092;47.876;9.372;2022-07-23T13:33:04;27.10;99.90
8099;DHT22;4092;47.876;9.372;2022-07-23T13:35:32;27.60;99.90
8099;DHT22;4092;47.876;9.372;2022-07-23T13:38:01;27.90;99.90
8099;DHT22;4092;47.876;9.372;2022-07-23T13:40:28;27.90;99.90
8099;DHT22;4092;47.876;9.372;2022-07-23T13:42:56;27.70;99.90
8099;DHT22;4092;47.876;9.372;2022-07-23T13:45:23;27.70;99.90
8099;DHT22;4092;47.876;9.372;2022-07-23T13:47:50;27.40;99.90
8099;DHT22;4092;47.876;9.372;2022-07-23T13:50:17;27.70;99.90
8099;DHT22;4092;47.876;9.372;2022-07-23T13:52:44;27.70;99.90
8099;DHT22;4092;47.876;9.372;2022-07-23T13:55:13;27.90;99.90
8099;DHT22;4092;47.876;9.372;2022-07-23T13:57:40;28.00;99.90
8099;DHT22;4092;47.876;9.372;2022-07-23T14:00:08;28.10;99.90
8099;DHT22;4092;47.876;9.372;2022-07-23T14:02:37;28.20;99.90
8099;DHT22;4092;47.876;9.372;2022-07-23T14:05:05;28.20;99.90
8099;DHT22;4092;47.876;9.372;2022-07-23T14:07:33;28.10;99.90
8099;DHT22;4092;47.876;9.372;2022-07-23T14:10:00;28.60;99.90
8099;DHT22;4092;47.876;9.372;2022-07-23T14:12:29;28.20;99.90
8099;DHT22;4092;47.876;9.372;2022-07-23T14:14:56;28.40;99.90
8099;DHT22;4092;47.876;9.372;2022-07-23T14:17:23;28.50;99.90
8099;DHT22;4092;47.876;9.372;2022-07-23T14:19:50;28.70;99.90
8099;DHT22;4092;47.876;9.372;2022-07-23T14:22:17;28.60;99.90
8099;DHT22;4092;47.876;9.372;2022-07-23T14:24:45;29.00;99.90
8099;DHT22;4092;47.876;9.372;2022-07-23T14:27:12;29.30;99.90
8099;DHT22;4092;47.876;9.372;2022-07-23T14:29:40;29.50;99.90
8099;DHT22;4092;47.876;9.372;2022-07-23T14:32:07;29.60;99.90
8099;DHT22;4092;47.876;9.372;2022-07-23T14:34:35;29.50;99.90
8099;DHT22;4092;47.876;9.372;2022-07-23T14:37:02;29.70;99.90
8099;DHT22;4092;47.876;9.372;2022-07-23T14:39:29;29.40;99.90
8099;DHT22;4092;47.876;9.372;2022-07-23T14:41:56;29.00;99.90
8099;DHT22;4092;47.876;9.372;2022-07-23T14:44:23;28.30;99.90
8099;DHT22;4092;47.876;9.372;2022-07-23T14:46:53;28.20;99.90
8099;DHT22;4092;47.876;9.372;2022-07-23T14:49:20;28.20;99.90
8099;DHT22;4092;47.876;9.372;2022-07-23T14:51:47;28.40;99.90
8099;DHT22;4092;47.876;9.372;2022-07-23T14:54:14;28.50;99.90
8099;DHT22;4092;47.876;9.372;2022-07-23T14:56:41;28.30;99.90
8099;DHT22;4092;47.876;9.372;2022-07-23T14:59:09;28.10;99.90
8099;DHT22;4092;47.876;9.372;2022-07-23T15:01:36;28.00;99.90
8099;DHT22;4092;47.876;9.372;2022-07-23T15:04:05;27.80;99.90
8099;DHT22;4092;47.876;9.372;2022-07-23T15:06:32;27.60;99.90
8099;DHT22;4092;47.876;9.372;2022-07-23T15:09:00;27.10;99.90
8099;DHT22;4092;47.876;9.372;2022-07-23T15:11:27;27.10;99.90
8099;DHT22;4092;47.876;9.372;2022-07-23T15:13:59;27.00;99.90
8099;DHT22;4092;47.876;9.372;2022-07-23T15:16:26;26.80;99.90
8099;DHT22;4092;47.876;9.372;2022-07-23T15:18:54;26.80;99.90
8099;DHT22;4092;47.876;9.372;2022-07-23T15:21:22;27.00;99.90
8099;DHT22;4092;47.876;9.372;2022-07-23T15:23:49;26.70;99.90
8099;DHT22;4092;47.876;9.372;2022-07-23T15:26:17;26.60;99.90
8099;DHT22;4092;47.876;9.372;2022-07-23T15:28:44;26.50;99.90
8099;DHT22;4092;47.876;9.372;2022-07-23T15:31:11;26.40;99.90
8099;DHT22;4092;47.876;9.372;2022-07-23T15:33:38;26.60;99.90
8099;DHT22;4092;47.876;9.372;2022-07-23T15:36:07;26.80;99.90
8099;DHT22;4092;47.876;9.372;2022-07-23T15:38:36;27.10;99.90
8099;DHT22;4092;47.876;9.372;2022-07-23T15:41:04;27.40;99.90
8099;DHT22;4092;47.876;9.372;2022-07-23T15:43:31;27.30;99.90
8099;DHT22;4092;47.876;9.372;2022-07-23T15:45:58;27.00;99.90
8099;DHT22;4092;47.876;9.372;2022-07-23T15:48:25;26.80;99.90
8099;DHT22;4092;47.876;9.372;2022-07-23T15:50:55;26.60;99.90
8099;DHT22;4092;47.876;9.372;2022-07-23T15:53:22;26.50;99.90
8099;DHT22;4092;47.876;9.372;2022-07-23T15:55:51;26.80;99.90
8099;DHT22;4092;47.876;9.372;2022-07-23T15:58:18;27.10;99.90
8099;DHT22;4092;47.876;9.372;2022-07-23T16:00:45;27.40;99.90
8099;DHT22;4092;47.876;9.372;2022-07-23T16:03:12;27.50;99.90
8099;DHT22;4092;47.876;9.372;2022-07-23T16:05:40;27.80;99.90
8099;DHT22;4092;47.876;9.372;2022-07-23T16:08:07;28.10;99.90
8099;DHT22;4092;47.876;9.372;2022-07-23T16:10:34;28.30;99.90
8099;DHT22;4092;47.876;9.372;2022-07-23T16:13:03;28.40;99.90
8099;DHT22;4092;47.876;9.372;2022-07-23T16:15:30;28.70;99.90
8099;DHT22;4092;47.876;9.372;2022-07-23T16:17:58;28.60;99.90
8099;DHT22;4092;47.876;9.372;2022-07-23T16:20:25;28.40;99.90
8099;DHT22;4092;47.876;9.372;2022-07-23T16:22:52;28.10;99.90